createdAt,value
2019-01-27T13:49:49.263Z,2.70
2019-01-27T13:50:49.226Z,2.70
2019-01-27T13:51:49.175Z,2.80
2019-01-27T13:52:49.149Z,3.50
2019-01-27T13:53:49.102Z,3.00
2019-01-27T13:54:49.027Z,3.00
2019-01-27T13:55:49.032Z,3.10
2019-01-27T13:56:48.982Z,3.30
2019-01-27T13:57:48.937Z,3.20
2019-01-27T13:58:48.861Z,3.20
2019-01-27T13:59:48.808Z,3.20
2019-01-27T14:00:48.739Z,3.20
2019-01-27T14:01:49.543Z,3.50
2019-01-27T14:02:48.620Z,3.20
2019-01-27T14:03:48.543Z,3.00
2019-01-27T14:04:48.702Z,2.90
2019-01-27T14:05:48.391Z,3.00
2019-01-27T14:06:48.321Z,3.30
2019-01-27T14:07:48.289Z,3.40
2019-01-27T14:08:48.193Z,3.00
2019-01-27T14:09:48.112Z,3.20
2019-01-27T14:10:48.044Z,3.50
2019-01-27T14:11:47.975Z,3.00
2019-01-27T14:12:44.343Z,3.50
2019-01-27T14:13:44.331Z,3.20
2019-01-27T14:14:44.329Z,3.50
2019-01-27T14:15:44.310Z,2.80
2019-01-27T14:16:44.297Z,3.40
2019-01-27T14:17:44.301Z,3.40
2019-01-27T14:18:44.276Z,3.40
2019-01-27T14:19:44.271Z,3.40
2019-01-27T14:20:44.254Z,3.00
2019-01-27T14:21:44.237Z,3.80
2019-01-27T14:22:44.232Z,3.30
2019-01-27T14:23:44.276Z,3.30
2019-01-27T14:24:44.177Z,3.40
2019-01-27T14:25:44.162Z,3.30
2019-01-27T14:26:44.140Z,3.50
2019-01-27T14:27:44.130Z,3.60
2019-01-27T14:28:44.104Z,3.40
2019-01-27T14:29:44.083Z,3.70
2019-01-27T14:30:44.051Z,3.40
2019-01-27T14:32:44.608Z,3.60
2019-01-27T14:33:45.133Z,3.60
2019-01-27T14:34:45.838Z,3.20
2019-01-27T14:36:32.156Z,3.30
2019-01-27T14:37:32.783Z,3.30
2019-01-27T14:38:33.439Z,3.10
2019-01-27T14:39:34.080Z,3.70
2019-01-27T14:40:34.758Z,3.70
2019-01-27T14:41:35.394Z,3.50
2019-01-27T14:42:36.027Z,3.50
2019-01-27T14:43:36.673Z,3.70
2019-01-27T14:44:37.302Z,3.60
2019-01-27T14:45:38.007Z,3.50
2019-01-27T14:47:25.059Z,3.60
2019-01-27T14:48:26.129Z,3.60
2019-01-27T14:49:26.642Z,3.70
2019-01-27T14:51:04.866Z,3.60
2019-01-27T14:52:05.650Z,3.40
2019-01-27T14:53:06.577Z,3.80
2019-01-27T14:54:07.750Z,3.20
2019-01-27T14:55:08.089Z,3.20
2019-01-27T14:56:08.416Z,3.30
2019-01-27T14:57:08.761Z,3.20
2019-01-27T14:58:09.225Z,3.40
2019-01-27T14:59:09.628Z,3.40
2019-01-27T15:00:10.762Z,2.80
2019-01-27T15:01:11.574Z,3.00
2019-01-27T15:02:12.152Z,3.30
2019-01-27T15:03:12.792Z,3.20
2019-01-27T15:04:14.066Z,3.20
2019-01-27T15:05:14.671Z,3.30
2019-01-27T15:06:15.088Z,3.30
2019-01-27T15:07:15.583Z,3.30
2019-01-27T15:08:16.184Z,3.10
2019-01-27T15:09:16.907Z,3.70
2019-01-27T15:10:17.316Z,3.00
2019-01-27T15:11:17.679Z,3.80
2019-01-27T15:12:18.018Z,3.30
2019-01-27T15:13:18.836Z,3.30
2019-01-27T15:14:19.137Z,3.40
2019-01-27T15:15:19.490Z,3.50
2019-01-27T15:16:19.808Z,3.10
2019-01-27T15:17:20.231Z,3.30
2019-01-27T15:18:20.678Z,3.40
2019-01-27T15:19:21.024Z,3.20
2019-01-27T15:20:21.725Z,3.50
2019-01-27T15:21:22.084Z,3.20
2019-01-27T15:22:22.423Z,3.70
2019-01-27T15:23:22.850Z,3.40
2019-01-27T15:24:23.209Z,3.80
2019-01-27T15:25:23.529Z,3.90
2019-01-27T15:26:23.844Z,4.00
2019-01-27T15:27:24.197Z,5.80
2019-01-27T15:28:24.840Z,6.60
2019-01-27T15:29:25.192Z,8.10
2019-01-27T15:30:25.506Z,9.30
2019-01-27T15:31:25.911Z,10.00
2019-01-27T15:32:26.233Z,10.70
2019-01-27T15:33:26.597Z,9.70
2019-01-27T15:34:26.935Z,9.30
2019-01-27T15:35:27.284Z,9.90
2019-01-27T15:36:27.606Z,8.80
2019-01-27T15:37:28.058Z,9.60
2019-01-27T15:38:28.564Z,9.90
2019-01-27T15:39:29.375Z,10.10
2019-01-27T15:40:30.403Z,9.60
2019-01-27T15:43:48.913Z,10.80
2019-01-27T15:44:49.587Z,10.80
2019-01-27T15:45:50.205Z,11.30
2019-01-27T15:46:50.825Z,11.20
2019-01-27T15:47:51.510Z,11.00
2019-01-27T15:48:52.130Z,12.20
2019-01-27T15:49:52.733Z,11.20
2019-01-27T15:50:53.332Z,12.50
2019-01-27T15:51:53.927Z,12.80
2019-01-27T15:52:54.535Z,13.80
2019-01-27T15:55:21.073Z,12.80
2019-01-27T15:56:22.412Z,13.00
2019-01-27T15:57:23.099Z,13.80
2019-01-27T15:58:23.710Z,13.30
2019-01-27T15:59:24.718Z,14.10
2019-01-27T16:00:25.362Z,13.20
2019-01-27T16:01:25.963Z,13.80
2019-01-27T16:02:26.632Z,13.90
2019-01-27T16:03:27.247Z,13.10
2019-01-27T16:04:27.869Z,13.10
2019-01-27T16:05:28.460Z,12.10
2019-01-27T16:06:29.058Z,12.10
2019-01-27T16:07:29.648Z,11.20
2019-01-27T16:08:30.252Z,10.60
2019-01-27T16:09:30.863Z,11.90
2019-01-27T16:10:31.450Z,10.00
2019-01-27T16:11:32.043Z,10.80
2019-01-27T16:12:32.641Z,10.80
2019-01-27T16:13:33.240Z,11.00
2019-01-27T16:14:33.850Z,10.00
2019-01-27T16:15:34.435Z,10.00
2019-01-27T16:16:35.019Z,9.60
2019-01-27T16:17:35.604Z,9.20
2019-01-27T16:18:36.201Z,8.60
2019-01-27T16:19:36.802Z,8.80
2019-01-27T16:20:37.400Z,8.90
2019-01-27T16:21:37.982Z,8.10
2019-01-27T16:22:38.575Z,7.90
2019-01-27T16:23:39.182Z,8.60
2019-01-27T16:24:39.841Z,8.30
2019-01-27T16:25:41.495Z,7.80
2019-01-27T16:26:42.188Z,8.30
2019-01-27T16:27:42.798Z,8.00
2019-01-27T16:28:43.397Z,8.00
2019-01-27T16:29:44.006Z,7.90
2019-01-27T16:30:45.000Z,7.50
2019-01-27T16:31:45.745Z,7.60
2019-01-27T16:32:46.384Z,7.80
2019-01-27T16:33:47.019Z,6.90
2019-01-27T16:34:47.659Z,6.70
2019-01-27T16:35:48.281Z,6.20
2019-01-27T16:36:48.883Z,6.70
2019-01-27T16:37:49.469Z,7.10
2019-01-27T16:38:50.068Z,6.50
2019-01-27T16:39:50.732Z,6.00
2019-01-27T16:40:51.332Z,5.80
2019-01-27T16:41:51.917Z,5.30
2019-01-27T16:42:52.523Z,5.90
2019-01-27T16:43:53.122Z,6.10
2019-01-27T16:44:53.779Z,5.30
2019-01-27T16:45:54.383Z,5.40
2019-01-27T16:46:54.987Z,5.50
2019-01-27T16:47:55.594Z,6.10
2019-01-27T16:48:56.194Z,5.40
2019-01-27T16:49:56.953Z,5.30
2019-01-27T16:50:57.564Z,5.70
2019-01-27T16:51:58.160Z,5.10
2019-01-27T16:52:58.759Z,5.00
2019-01-27T16:53:59.352Z,5.20
2019-01-27T16:54:59.966Z,4.60
2019-01-27T16:56:00.565Z,5.00
2019-01-27T16:57:01.154Z,5.10
2019-01-27T16:58:01.739Z,4.70
2019-01-27T16:59:02.349Z,4.80
2019-01-27T17:00:02.976Z,5.20
2019-01-27T17:01:48.274Z,5.90
2019-01-27T17:02:48.883Z,5.40
2019-01-27T17:05:03.197Z,4.20
2019-01-27T17:06:03.839Z,4.40
2019-01-27T17:07:04.466Z,4.40
2019-01-27T17:08:05.080Z,4.00
2019-01-27T17:09:05.707Z,4.50
2019-01-27T17:10:06.392Z,3.80
2019-01-27T17:11:07.106Z,4.40
2019-01-27T17:11:47.762Z,4.40
2019-01-27T17:12:53.238Z,4.40
2019-01-27T17:13:53.278Z,4.50
2019-01-27T17:14:53.257Z,4.40
2019-01-27T17:15:53.242Z,4.20
2019-01-27T17:16:53.194Z,3.70
2019-01-27T17:17:53.166Z,3.90
2019-01-27T17:18:53.135Z,3.80
2019-01-27T17:19:53.101Z,5.00
2019-01-27T17:20:53.066Z,4.00
2019-01-27T17:21:53.000Z,4.00
2019-01-27T17:22:52.953Z,3.70
2019-01-27T17:23:52.890Z,3.90
2019-01-27T17:24:52.826Z,4.40
2019-01-27T17:25:53.723Z,4.10
2019-01-27T17:26:52.718Z,3.80
2019-01-27T17:27:52.653Z,4.20
2019-01-27T17:28:52.601Z,3.60
2019-01-27T17:29:52.530Z,3.80
2019-01-27T17:30:52.495Z,3.60
2019-01-27T17:31:52.445Z,3.80
2019-01-27T17:32:52.409Z,3.80
2019-01-27T17:33:52.321Z,3.90
2019-01-27T17:34:52.269Z,4.10
2019-01-27T17:35:52.233Z,3.60
2019-01-27T17:36:52.155Z,3.40
2019-01-27T17:37:52.101Z,3.80
2019-01-27T17:38:52.051Z,4.30
2019-01-27T17:39:51.999Z,3.90
2019-01-27T17:40:51.974Z,3.80
2019-01-27T17:41:51.930Z,3.60
2019-01-27T17:42:51.869Z,3.60
2019-01-27T17:43:51.803Z,3.80
2019-01-27T17:44:51.752Z,3.70
2019-01-27T17:45:51.723Z,3.50
2019-01-27T17:46:51.695Z,3.40
2019-01-27T17:47:51.596Z,3.80
2019-01-27T17:48:51.546Z,3.80
2019-01-27T17:49:51.496Z,3.40
2019-01-27T17:50:51.448Z,3.50
2019-01-27T17:51:51.403Z,3.80
2019-01-27T17:52:51.351Z,3.60
2019-01-27T17:53:51.297Z,3.60
2019-01-27T17:54:51.244Z,3.60
2019-01-27T17:55:51.194Z,3.40
2019-01-27T17:56:51.172Z,3.50
2019-01-27T17:57:51.101Z,3.80
2019-01-27T17:58:54.268Z,3.60
2019-01-27T17:59:51.005Z,4.00
2019-01-27T18:00:50.967Z,3.30
2019-01-27T18:01:50.934Z,4.20
2019-01-27T18:02:50.874Z,4.00
2019-01-27T18:38:05.016Z,3.80
2019-01-27T18:39:05.705Z,3.90
2019-01-27T18:40:06.379Z,4.30
2019-01-27T18:41:07.007Z,3.90
2019-01-27T18:42:07.628Z,4.10
2019-01-27T18:43:08.248Z,4.30
2019-01-27T18:44:08.891Z,4.20
2019-01-27T18:45:09.535Z,4.10
2019-01-27T18:46:10.158Z,4.40
2019-01-27T18:47:10.777Z,4.40
2019-01-27T18:48:11.394Z,4.10
2019-01-27T18:49:12.011Z,4.40
2019-01-27T18:50:12.665Z,4.40
2019-01-27T18:51:13.281Z,4.30
2019-01-27T18:52:13.889Z,4.20
2019-01-27T18:53:14.510Z,4.50
2019-01-27T18:54:15.164Z,4.20
2019-01-27T18:55:15.846Z,4.00
2019-01-27T18:56:57.114Z,4.60
2019-01-27T18:57:57.799Z,4.50
2019-01-27T18:59:27.340Z,4.80
2019-01-27T19:00:28.024Z,4.80
2019-01-27T19:02:35.563Z,4.20
2019-01-27T19:03:36.254Z,4.10
2019-01-27T19:04:36.977Z,4.30
2019-01-27T19:06:04.942Z,4.30
2019-01-27T19:07:05.937Z,4.20
2019-01-27T19:08:06.576Z,4.40
2019-01-27T19:09:07.177Z,3.90
2019-01-27T19:10:07.870Z,4.30
2019-01-27T19:11:08.462Z,3.70
2019-01-27T19:12:09.055Z,4.00
2019-01-27T19:13:09.641Z,4.20
2019-01-27T19:14:10.240Z,3.90
2019-01-27T19:15:10.846Z,4.20
2019-01-27T19:16:11.441Z,4.50
2019-01-27T19:17:12.046Z,4.40
2019-01-27T19:18:12.661Z,4.50
2019-01-27T19:19:13.255Z,4.30
2019-01-27T19:20:13.884Z,4.70
2019-01-27T19:21:14.486Z,3.90
2019-01-27T19:22:15.096Z,4.30
2019-01-27T19:23:15.708Z,4.30
2019-01-27T19:24:16.304Z,4.00
2019-01-27T19:25:16.930Z,4.70
2019-01-27T19:26:17.526Z,4.20
2019-01-27T19:27:18.144Z,4.30
2019-01-27T19:28:18.738Z,4.30
2019-01-27T19:29:19.334Z,3.60
2019-01-27T19:31:44.934Z,4.00
2019-01-27T19:32:46.194Z,4.10
